sensor_id;sensor_type;location;lat;lon;timestamp;P1;durP1;ratioP1;P2;durP2;ratioP2
50906;SDS011;36882;27.680;85.304;2023-12-29T00:01:39;60.33;;;36.17;;
50906;SDS011;36882;27.680;85.304;2023-12-29T00:06:42;60.00;;;35.33;;
50906;SDS011;36882;27.680;85.304;2023-12-29T00:09:25;60.22;;;34.58;;
50906;SDS011;36882;27.680;85.304;2023-12-29T00:11:56;63.15;;;38.63;;
50906;SDS011;36882;27.680;85.304;2023-12-29T00:14:26;57.28;;;36.10;;
50906;SDS011;36882;27.680;85.304;2023-12-29T00:16:56;56.35;;;35.05;;
50906;SDS011;36882;27.680;85.304;2023-12-29T00:19:27;59.75;;;35.85;;
50906;SDS011;36882;27.680;85.304;2023-12-29T00:21:58;52.92;;;36.60;;
50906;SDS011;36882;27.680;85.304;2023-12-29T00:24:31;55.28;;;36.63;;
50906;SDS011;36882;27.680;85.304;2023-12-29T00:27:02;66.53;;;40.08;;
50906;SDS011;36882;27.680;85.304;2023-12-29T00:29:33;64.95;;;38.60;;
50906;SDS011;36882;27.680;85.304;2023-12-29T00:32:04;70.13;;;42.22;;
50906;SDS011;36882;27.680;85.304;2023-12-29T00:34:34;59.42;;;40.95;;
50906;SDS011;36882;27.680;85.304;2023-12-29T00:37:06;63.75;;;39.40;;
50906;SDS011;36882;27.680;85.304;2023-12-29T00:39:37;69.20;;;37.92;;
50906;SDS011;36882;27.680;85.304;2023-12-29T00:42:09;76.38;;;39.47;;
50906;SDS011;36882;27.680;85.304;2023-12-29T00:44:40;70.97;;;41.92;;
50906;SDS011;36882;27.680;85.304;2023-12-29T00:47:11;74.32;;;41.38;;
50906;SDS011;36882;27.680;85.304;2023-12-29T00:49:41;66.15;;;38.35;;
50906;SDS011;36882;27.680;85.304;2023-12-29T00:52:12;62.95;;;37.45;;
50906;SDS011;36882;27.680;85.304;2023-12-29T00:54:42;60.53;;;38.38;;
50906;SDS011;36882;27.680;85.304;2023-12-29T00:57:13;58.38;;;37.30;;
50906;SDS011;36882;27.680;85.304;2023-12-29T00:59:43;58.03;;;38.53;;
50906;SDS011;36882;27.680;85.304;2023-12-29T01:02:14;61.28;;;38.80;;
50906;SDS011;36882;27.680;85.304;2023-12-29T01:04:44;57.05;;;37.25;;
50906;SDS011;36882;27.680;85.304;2023-12-29T01:07:15;65.90;;;39.78;;
50906;SDS011;36882;27.680;85.304;2023-12-29T01:09:45;64.30;;;39.30;;
50906;SDS011;36882;27.680;85.304;2023-12-29T01:12:16;67.35;;;41.00;;
50906;SDS011;36882;27.680;85.304;2023-12-29T01:14:47;94.78;;;42.67;;
50906;SDS011;36882;27.680;85.304;2023-12-29T01:17:18;80.90;;;43.33;;
50906;SDS011;36882;27.680;85.304;2023-12-29T01:19:51;89.30;;;53.22;;
50906;SDS011;36882;27.680;85.304;2023-12-29T01:22:21;113.70;;;56.30;;
50906;SDS011;36882;27.680;85.304;2023-12-29T01:24:52;87.10;;;52.38;;
50906;SDS011;36882;27.680;85.304;2023-12-29T01:27:22;92.40;;;53.28;;
50906;SDS011;36882;27.680;85.304;2023-12-29T01:29:52;89.40;;;48.58;;
50906;SDS011;36882;27.680;85.304;2023-12-29T01:32:23;104.97;;;60.10;;
50906;SDS011;36882;27.680;85.304;2023-12-29T01:34:53;88.40;;;54.85;;
50906;SDS011;36882;27.680;85.304;2023-12-29T01:37:24;94.78;;;60.42;;
50906;SDS011;36882;27.680;85.304;2023-12-29T01:39:54;96.20;;;60.25;;
50906;SDS011;36882;27.680;85.304;2023-12-29T01:42:25;105.63;;;62.05;;
50906;SDS011;36882;27.680;85.304;2023-12-29T01:44:55;102.25;;;59.83;;
50906;SDS011;36882;27.680;85.304;2023-12-29T01:49:55;116.10;;;68.05;;
50906;SDS011;36882;27.680;85.304;2023-12-29T01:52:26;125.85;;;66.63;;
50906;SDS011;36882;27.680;85.304;2023-12-29T01:57:27;180.68;;;103.53;;
50906;SDS011;36882;27.680;85.304;2023-12-29T01:59:57;172.25;;;97.22;;
50906;SDS011;36882;27.680;85.304;2023-12-29T02:02:30;136.90;;;77.07;;
50906;SDS011;36882;27.680;85.304;2023-12-29T02:05:00;108.95;;;70.43;;
50906;SDS011;36882;27.680;85.304;2023-12-29T02:10:01;109.00;;;70.38;;
50906;SDS011;36882;27.680;85.304;2023-12-29T02:12:31;107.53;;;69.38;;
50906;SDS011;36882;27.680;85.304;2023-12-29T02:17:36;103.80;;;67.38;;
50906;SDS011;36882;27.680;85.304;2023-12-29T02:20:08;115.25;;;70.72;;
50906;SDS011;36882;27.680;85.304;2023-12-29T02:22:39;116.72;;;69.65;;
50906;SDS011;36882;27.680;85.304;2023-12-29T02:25:14;103.45;;;68.00;;
50906;SDS011;36882;27.680;85.304;2023-12-29T02:31:00;104.80;;;67.70;;
50906;SDS011;36882;27.680;85.304;2023-12-29T02:33:32;109.72;;;67.90;;
50906;SDS011;36882;27.680;85.304;2023-12-29T02:36:04;117.95;;;67.78;;
50906;SDS011;36882;27.680;85.304;2023-12-29T02:38:35;109.25;;;67.72;;
50906;SDS011;36882;27.680;85.304;2023-12-29T02:41:07;112.20;;;66.22;;
50906;SDS011;36882;27.680;85.304;2023-12-29T02:43:37;113.07;;;71.47;;
50906;SDS011;36882;27.680;85.304;2023-12-29T02:46:08;117.60;;;67.75;;
50906;SDS011;36882;27.680;85.304;2023-12-29T02:48:38;120.18;;;71.25;;
50906;SDS011;36882;27.680;85.304;2023-12-29T02:51:09;120.45;;;73.03;;
50906;SDS011;36882;27.680;85.304;2023-12-29T02:53:39;115.65;;;71.78;;
50906;SDS011;36882;27.680;85.304;2023-12-29T02:56:09;115.55;;;69.60;;
50906;SDS011;36882;27.680;85.304;2023-12-29T02:58:40;104.95;;;65.15;;
50906;SDS011;36882;27.680;85.304;2023-12-29T03:01:10;95.82;;;65.20;;
50906;SDS011;36882;27.680;85.304;2023-12-29T03:06:11;108.47;;;70.07;;
50906;SDS011;36882;27.680;85.304;2023-12-29T03:08:41;110.90;;;66.72;;
50906;SDS011;36882;27.680;85.304;2023-12-29T03:11:12;104.45;;;60.22;;
50906;SDS011;36882;27.680;85.304;2023-12-29T03:13:43;97.22;;;64.60;;
50906;SDS011;36882;27.680;85.304;2023-12-29T03:16:13;126.85;;;59.78;;
50906;SDS011;36882;27.680;85.304;2023-12-29T03:18:44;96.88;;;59.60;;
50906;SDS011;36882;27.680;85.304;2023-12-29T03:21:16;170.18;;;65.65;;
50906;SDS011;36882;27.680;85.304;2023-12-29T03:23:47;184.95;;;64.13;;
50906;SDS011;36882;27.680;85.304;2023-12-29T03:26:17;109.28;;;62.30;;
50906;SDS011;36882;27.680;85.304;2023-12-29T03:28:47;92.85;;;58.80;;
50906;SDS011;36882;27.680;85.304;2023-12-29T03:31:18;74.57;;;52.05;;
50906;SDS011;36882;27.680;85.304;2023-12-29T03:33:49;100.38;;;57.80;;
50906;SDS011;36882;27.680;85.304;2023-12-29T03:41:20;85.32;;;54.55;;
50906;SDS011;36882;27.680;85.304;2023-12-29T03:46:20;97.60;;;65.63;;
50906;SDS011;36882;27.680;85.304;2023-12-29T03:48:51;84.57;;;59.92;;
50906;SDS011;36882;27.680;85.304;2023-12-29T03:51:22;97.22;;;61.35;;
50906;SDS011;36882;27.680;85.304;2023-12-29T03:53:52;93.30;;;59.80;;
50906;SDS011;36882;27.680;85.304;2023-12-29T03:56:23;88.00;;;61.50;;
50906;SDS011;36882;27.680;85.304;2023-12-29T03:58:53;105.80;;;62.95;;
50906;SDS011;36882;27.680;85.304;2023-12-29T04:01:24;95.15;;;57.45;;
50906;SDS011;36882;27.680;85.304;2023-12-29T04:03:56;87.03;;;57.85;;
50906;SDS011;36882;27.680;85.304;2023-12-29T04:08:56;96.20;;;58.67;;
50906;SDS011;36882;27.680;85.304;2023-12-29T04:11:27;85.00;;;57.05;;
50906;SDS011;36882;27.680;85.304;2023-12-29T04:13:57;95.32;;;63.22;;
50906;SDS011;36882;27.680;85.304;2023-12-29T04:16:29;95.07;;;62.97;;
50906;SDS011;36882;27.680;85.304;2023-12-29T04:18:59;97.25;;;62.00;;
50906;SDS011;36882;27.680;85.304;2023-12-29T04:24:01;103.88;;;62.15;;
50906;SDS011;36882;27.680;85.304;2023-12-29T04:26:38;102.07;;;61.40;;
50906;SDS011;36882;27.680;85.304;2023-12-29T04:29:08;86.20;;;60.45;;
50906;SDS011;36882;27.680;85.304;2023-12-29T04:31:39;96.28;;;60.38;;
50906;SDS011;36882;27.680;85.304;2023-12-29T04:36:39;98.22;;;66.30;;
50906;SDS011;36882;27.680;85.304;2023-12-29T04:41:40;109.55;;;70.90;;
50906;SDS011;36882;27.680;85.304;2023-12-29T04:44:11;107.25;;;69.57;;
50906;SDS011;36882;27.680;85.304;2023-12-29T04:46:42;109.00;;;69.97;;
50906;SDS011;36882;27.680;85.304;2023-12-29T04:49:12;114.53;;;70.70;;
50906;SDS011;36882;27.680;85.304;2023-12-29T04:51:50;115.78;;;71.88;;
50906;SDS011;36882;27.680;85.304;2023-12-29T04:54:24;105.63;;;72.43;;
50906;SDS011;36882;27.680;85.304;2023-12-29T04:56:55;103.38;;;70.32;;
50906;SDS011;36882;27.680;85.304;2023-12-29T05:01:55;113.43;;;72.00;;
50906;SDS011;36882;27.680;85.304;2023-12-29T05:06:56;104.45;;;68.85;;
50906;SDS011;36882;27.680;85.304;2023-12-29T05:09:26;91.35;;;61.63;;
50906;SDS011;36882;27.680;85.304;2023-12-29T05:11:57;88.63;;;61.10;;
50906;SDS011;36882;27.680;85.304;2023-12-29T05:14:29;90.47;;;59.13;;
50906;SDS011;36882;27.680;85.304;2023-12-29T05:26:25;85.80;;;55.38;;
50906;SDS011;36882;27.680;85.304;2023-12-29T05:28:56;79.00;;;56.80;;
50906;SDS011;36882;27.680;85.304;2023-12-29T05:31:28;86.70;;;63.00;;
50906;SDS011;36882;27.680;85.304;2023-12-29T05:33:59;100.07;;;68.68;;
50906;SDS011;36882;27.680;85.304;2023-12-29T05:36:29;94.38;;;65.55;;
50906;SDS011;36882;27.680;85.304;2023-12-29T05:39:00;106.95;;;71.88;;
50906;SDS011;36882;27.680;85.304;2023-12-29T05:41:31;98.22;;;64.20;;
50906;SDS011;36882;27.680;85.304;2023-12-29T05:44:01;86.78;;;61.28;;
50906;SDS011;36882;27.680;85.304;2023-12-29T05:46:32;94.38;;;58.92;;
50906;SDS011;36882;27.680;85.304;2023-12-29T05:49:03;93.60;;;63.70;;
50906;SDS011;36882;27.680;85.304;2023-12-29T05:51:33;104.35;;;62.55;;
50906;SDS011;36882;27.680;85.304;2023-12-29T05:54:04;90.80;;;62.80;;
50906;SDS011;36882;27.680;85.304;2023-12-29T05:56:38;99.60;;;64.32;;
50906;SDS011;36882;27.680;85.304;2023-12-29T05:59:08;92.22;;;62.85;;
50906;SDS011;36882;27.680;85.304;2023-12-29T06:01:39;109.53;;;70.90;;
50906;SDS011;36882;27.680;85.304;2023-12-29T06:04:10;105.72;;;69.45;;
50906;SDS011;36882;27.680;85.304;2023-12-29T06:06:42;101.68;;;69.43;;
50906;SDS011;36882;27.680;85.304;2023-12-29T06:09:14;100.70;;;70.38;;
50906;SDS011;36882;27.680;85.304;2023-12-29T06:11:45;87.70;;;56.63;;
50906;SDS011;36882;27.680;85.304;2023-12-29T06:14:16;82.10;;;57.33;;
50906;SDS011;36882;27.680;85.304;2023-12-29T06:16:50;89.25;;;57.45;;
50906;SDS011;36882;27.680;85.304;2023-12-29T06:19:21;75.25;;;52.83;;
50906;SDS011;36882;27.680;85.304;2023-12-29T06:21:52;79.20;;;53.33;;
50906;SDS011;36882;27.680;85.304;2023-12-29T06:24:26;69.53;;;46.45;;
50906;SDS011;36882;27.680;85.304;2023-12-29T06:26:58;77.55;;;47.13;;
50906;SDS011;36882;27.680;85.304;2023-12-29T06:29:32;77.20;;;44.25;;
50906;SDS011;36882;27.680;85.304;2023-12-29T06:32:02;65.22;;;38.60;;
50906;SDS011;36882;27.680;85.304;2023-12-29T06:34:33;59.30;;;40.92;;
50906;SDS011;36882;27.680;85.304;2023-12-29T06:37:09;48.72;;;34.78;;
50906;SDS011;36882;27.680;85.304;2023-12-29T06:39:39;50.80;;;38.47;;
50906;SDS011;36882;27.680;85.304;2023-12-29T06:42:10;69.53;;;34.35;;
50906;SDS011;36882;27.680;85.304;2023-12-29T06:44:41;43.25;;;31.75;;
50906;SDS011;36882;27.680;85.304;2023-12-29T06:47:12;44.60;;;32.72;;
50906;SDS011;36882;27.680;85.304;2023-12-29T06:49:42;60.65;;;35.50;;
50906;SDS011;36882;27.680;85.304;2023-12-29T06:52:13;48.95;;;33.22;;
50906;SDS011;36882;27.680;85.304;2023-12-29T06:54:45;53.35;;;38.65;;
50906;SDS011;36882;27.680;85.304;2023-12-29T06:57:15;46.00;;;30.83;;
50906;SDS011;36882;27.680;85.304;2023-12-29T06:59:46;50.45;;;32.75;;
50906;SDS011;36882;27.680;85.304;2023-12-29T07:02:17;35.80;;;26.83;;
50906;SDS011;36882;27.680;85.304;2023-12-29T07:04:48;44.72;;;28.83;;
50906;SDS011;36882;27.680;85.304;2023-12-29T07:07:19;41.15;;;25.98;;
50906;SDS011;36882;27.680;85.304;2023-12-29T07:09:49;44.35;;;27.05;;
50906;SDS011;36882;27.680;85.304;2023-12-29T07:12:20;46.60;;;30.05;;
50906;SDS011;36882;27.680;85.304;2023-12-29T07:14:50;41.65;;;27.30;;
50906;SDS011;36882;27.680;85.304;2023-12-29T07:17:27;35.42;;;25.85;;
50906;SDS011;36882;27.680;85.304;2023-12-29T07:20:01;44.47;;;27.35;;
50906;SDS011;36882;27.680;85.304;2023-12-29T07:22:32;44.35;;;28.88;;
50906;SDS011;36882;27.680;85.304;2023-12-29T07:25:04;37.03;;;25.90;;
50906;SDS011;36882;27.680;85.304;2023-12-29T07:27:35;45.15;;;29.38;;
50906;SDS011;36882;27.680;85.304;2023-12-29T07:30:07;45.17;;;26.20;;
50906;SDS011;36882;27.680;85.304;2023-12-29T07:32:37;39.92;;;27.90;;
50906;SDS011;36882;27.680;85.304;2023-12-29T07:35:10;41.80;;;27.80;;
50906;SDS011;36882;27.680;85.304;2023-12-29T07:37:40;39.17;;;26.17;;
50906;SDS011;36882;27.680;85.304;2023-12-29T07:40:12;42.35;;;29.90;;
50906;SDS011;36882;27.680;85.304;2023-12-29T07:42:45;43.80;;;28.13;;
50906;SDS011;36882;27.680;85.304;2023-12-29T07:45:24;42.60;;;26.85;;
50906;SDS011;36882;27.680;85.304;2023-12-29T07:47:55;46.08;;;28.55;;
50906;SDS011;36882;27.680;85.304;2023-12-29T07:50:28;48.13;;;32.38;;
50906;SDS011;36882;27.680;85.304;2023-12-29T07:52:59;49.63;;;29.95;;
50906;SDS011;36882;27.680;85.304;2023-12-29T07:55:32;37.33;;;26.30;;
50906;SDS011;36882;27.680;85.304;2023-12-29T07:58:02;48.08;;;27.10;;
50906;SDS011;36882;27.680;85.304;2023-12-29T08:00:34;43.08;;;27.98;;
50906;SDS011;36882;27.680;85.304;2023-12-29T08:03:05;45.85;;;26.33;;
50906;SDS011;36882;27.680;85.304;2023-12-29T08:05:37;47.25;;;27.98;;
50906;SDS011;36882;27.680;85.304;2023-12-29T08:08:08;39.75;;;25.38;;
50906;SDS011;36882;27.680;85.304;2023-12-29T08:10:43;44.95;;;25.17;;
50906;SDS011;36882;27.680;85.304;2023-12-29T08:13:13;34.92;;;23.63;;
50906;SDS011;36882;27.680;85.304;2023-12-29T08:15:46;37.17;;;22.88;;
50906;SDS011;36882;27.680;85.304;2023-12-29T08:18:16;39.60;;;22.85;;
50906;SDS011;36882;27.680;85.304;2023-12-29T08:20:47;34.90;;;21.08;;
50906;SDS011;36882;27.680;85.304;2023-12-29T08:23:17;37.55;;;22.88;;
50906;SDS011;36882;27.680;85.304;2023-12-29T08:25:50;41.05;;;20.80;;
50906;SDS011;36882;27.680;85.304;2023-12-29T08:28:25;29.05;;;20.88;;
50906;SDS011;36882;27.680;85.304;2023-12-29T08:30:57;44.60;;;24.13;;
50906;SDS011;36882;27.680;85.304;2023-12-29T08:33:27;36.65;;;23.33;;
50906;SDS011;36882;27.680;85.304;2023-12-29T08:35:58;35.50;;;22.27;;
50906;SDS011;36882;27.680;85.304;2023-12-29T08:38:30;34.72;;;20.02;;
50906;SDS011;36882;27.680;85.304;2023-12-29T08:41:10;40.92;;;21.30;;
50906;SDS011;36882;27.680;85.304;2023-12-29T08:43:43;32.85;;;20.55;;
50906;SDS011;36882;27.680;85.304;2023-12-29T08:46:14;35.92;;;20.30;;
50906;SDS011;36882;27.680;85.304;2023-12-29T08:48:45;38.95;;;20.55;;
50906;SDS011;36882;27.680;85.304;2023-12-29T08:51:16;40.38;;;20.67;;
50906;SDS011;36882;27.680;85.304;2023-12-29T08:53:48;36.83;;;21.77;;
50906;SDS011;36882;27.680;85.304;2023-12-29T08:56:19;39.10;;;19.75;;
50906;SDS011;36882;27.680;85.304;2023-12-29T08:58:52;39.15;;;22.50;;
50906;SDS011;36882;27.680;85.304;2023-12-29T09:01:26;30.42;;;18.80;;
50906;SDS011;36882;27.680;85.304;2023-12-29T09:03:57;36.03;;;19.60;;
50906;SDS011;36882;27.680;85.304;2023-12-29T09:06:28;36.35;;;20.38;;
50906;SDS011;36882;27.680;85.304;2023-12-29T09:09:02;35.97;;;19.88;;
50906;SDS011;36882;27.680;85.304;2023-12-29T09:11:32;34.38;;;20.05;;
50906;SDS011;36882;27.680;85.304;2023-12-29T09:14:03;39.10;;;18.92;;
50906;SDS011;36882;27.680;85.304;2023-12-29T09:16:35;30.20;;;18.50;;
50906;SDS011;36882;27.680;85.304;2023-12-29T09:19:09;30.40;;;19.25;;
50906;SDS011;36882;27.680;85.304;2023-12-29T09:21:57;34.72;;;20.35;;
50906;SDS011;36882;27.680;85.304;2023-12-29T09:24:27;37.33;;;20.10;;
50906;SDS011;36882;27.680;85.304;2023-12-29T09:26:58;44.53;;;21.65;;
50906;SDS011;36882;27.680;85.304;2023-12-29T09:29:29;50.55;;;20.27;;
50906;SDS011;36882;27.680;85.304;2023-12-29T09:32:01;40.65;;;20.60;;
50906;SDS011;36882;27.680;85.304;2023-12-29T09:34:31;36.85;;;17.88;;
50906;SDS011;36882;27.680;85.304;2023-12-29T09:37:03;31.80;;;19.23;;
50906;SDS011;36882;27.680;85.304;2023-12-29T09:39:34;36.70;;;22.85;;
50906;SDS011;36882;27.680;85.304;2023-12-29T09:42:06;34.35;;;20.23;;
50906;SDS011;36882;27.680;85.304;2023-12-29T09:44:40;29.10;;;17.15;;
50906;SDS011;36882;27.680;85.304;2023-12-29T09:47:12;33.42;;;18.55;;
50906;SDS011;36882;27.680;85.304;2023-12-29T09:49:44;40.80;;;18.77;;
50906;SDS011;36882;27.680;85.304;2023-12-29T09:52:16;29.67;;;17.30;;
50906;SDS011;36882;27.680;85.304;2023-12-29T09:54:51;38.40;;;17.90;;
50906;SDS011;36882;27.680;85.304;2023-12-29T09:57:21;31.27;;;20.10;;
50906;SDS011;36882;27.680;85.304;2023-12-29T09:59:54;34.88;;;19.42;;
50906;SDS011;36882;27.680;85.304;2023-12-29T10:02:30;47.33;;;20.52;;
50906;SDS011;36882;27.680;85.304;2023-12-29T10:05:01;42.00;;;21.70;;
50906;SDS011;36882;27.680;85.304;2023-12-29T10:07:35;32.95;;;18.38;;
50906;SDS011;36882;27.680;85.304;2023-12-29T10:10:09;47.30;;;20.50;;
50906;SDS011;36882;27.680;85.304;2023-12-29T10:12:42;41.38;;;18.63;;
50906;SDS011;36882;27.680;85.304;2023-12-29T10:18:02;38.38;;;21.02;;
50906;SDS011;36882;27.680;85.304;2023-12-29T10:23:22;42.05;;;22.98;;
50906;SDS011;36882;27.680;85.304;2023-12-29T10:25:54;35.25;;;20.25;;
50906;SDS011;36882;27.680;85.304;2023-12-29T10:28:32;41.70;;;18.30;;
50906;SDS011;36882;27.680;85.304;2023-12-29T10:31:05;48.83;;;20.17;;
50906;SDS011;36882;27.680;85.304;2023-12-29T10:33:36;27.80;;;17.75;;
50906;SDS011;36882;27.680;85.304;2023-12-29T10:36:07;39.55;;;20.23;;
50906;SDS011;36882;27.680;85.304;2023-12-29T10:38:39;50.40;;;22.90;;
50906;SDS011;36882;27.680;85.304;2023-12-29T10:41:11;44.03;;;21.20;;
50906;SDS011;36882;27.680;85.304;2023-12-29T10:43:43;70.47;;;30.58;;
50906;SDS011;36882;27.680;85.304;2023-12-29T10:46:19;116.93;;;31.00;;
50906;SDS011;36882;27.680;85.304;2023-12-29T10:48:52;86.80;;;29.40;;
50906;SDS011;36882;27.680;85.304;2023-12-29T10:51:26;69.22;;;29.85;;
50906;SDS011;36882;27.680;85.304;2023-12-29T10:53:58;86.22;;;33.05;;
50906;SDS011;36882;27.680;85.304;2023-12-29T10:56:30;111.45;;;32.45;;
50906;SDS011;36882;27.680;85.304;2023-12-29T10:59:01;80.07;;;30.92;;
50906;SDS011;36882;27.680;85.304;2023-12-29T11:01:33;58.58;;;28.92;;
50906;SDS011;36882;27.680;85.304;2023-12-29T11:04:05;58.47;;;31.30;;
50906;SDS011;36882;27.680;85.304;2023-12-29T11:06:41;62.38;;;32.58;;
50906;SDS011;36882;27.680;85.304;2023-12-29T11:09:14;53.33;;;28.63;;
50906;SDS011;36882;27.680;85.304;2023-12-29T11:12:01;52.85;;;27.67;;
50906;SDS011;36882;27.680;85.304;2023-12-29T11:14:43;53.10;;;29.52;;
50906;SDS011;36882;27.680;85.304;2023-12-29T11:17:16;54.00;;;30.48;;
50906;SDS011;36882;27.680;85.304;2023-12-29T11:19:50;57.50;;;29.63;;
50906;SDS011;36882;27.680;85.304;2023-12-29T11:22:21;69.50;;;32.63;;
50906;SDS011;36882;27.680;85.304;2023-12-29T11:24:52;64.13;;;31.08;;
50906;SDS011;36882;27.680;85.304;2023-12-29T11:27:27;75.75;;;32.28;;
50906;SDS011;36882;27.680;85.304;2023-12-29T11:30:02;66.72;;;32.38;;
50906;SDS011;36882;27.680;85.304;2023-12-29T11:32:40;52.95;;;30.60;;
50906;SDS011;36882;27.680;85.304;2023-12-29T11:40:35;60.72;;;34.60;;
50906;SDS011;36882;27.680;85.304;2023-12-29T11:43:17;65.55;;;39.15;;
50906;SDS011;36882;27.680;85.304;2023-12-29T11:45:49;75.85;;;48.78;;
50906;SDS011;36882;27.680;85.304;2023-12-29T11:50:52;87.90;;;49.88;;
50906;SDS011;36882;27.680;85.304;2023-12-29T11:53:30;69.30;;;42.65;;
50906;SDS011;36882;27.680;85.304;2023-12-29T11:56:03;93.53;;;54.13;;
50906;SDS011;36882;27.680;85.304;2023-12-29T11:58:44;139.07;;;78.15;;
50906;SDS011;36882;27.680;85.304;2023-12-29T12:01:34;87.70;;;50.53;;
50906;SDS011;36882;27.680;85.304;2023-12-29T12:04:28;84.87;;;49.17;;
50906;SDS011;36882;27.680;85.304;2023-12-29T12:06:58;96.18;;;53.05;;
50906;SDS011;36882;27.680;85.304;2023-12-29T12:09:29;76.35;;;46.22;;
50906;SDS011;36882;27.680;85.304;2023-12-29T12:12:02;82.13;;;48.55;;
50906;SDS011;36882;27.680;85.304;2023-12-29T12:17:36;79.93;;;48.97;;
50906;SDS011;36882;27.680;85.304;2023-12-29T12:20:07;90.88;;;54.50;;
50906;SDS011;36882;27.680;85.304;2023-12-29T12:22:37;82.72;;;50.55;;
50906;SDS011;36882;27.680;85.304;2023-12-29T12:25:11;83.80;;;49.55;;
50906;SDS011;36882;27.680;85.304;2023-12-29T12:27:42;88.70;;;53.35;;
50906;SDS011;36882;27.680;85.304;2023-12-29T12:30:15;93.70;;;51.50;;
50906;SDS011;36882;27.680;85.304;2023-12-29T12:32:59;91.72;;;51.97;;
50906;SDS011;36882;27.680;85.304;2023-12-29T12:35:30;98.05;;;56.53;;
50906;SDS011;36882;27.680;85.304;2023-12-29T12:38:08;104.38;;;54.55;;
50906;SDS011;36882;27.680;85.304;2023-12-29T12:40:39;83.47;;;51.78;;
50906;SDS011;36882;27.680;85.304;2023-12-29T12:43:13;84.78;;;48.33;;
50906;SDS011;36882;27.680;85.304;2023-12-29T12:45:59;88.80;;;47.67;;
50906;SDS011;36882;27.680;85.304;2023-12-29T12:48:36;72.95;;;43.90;;
50906;SDS011;36882;27.680;85.304;2023-12-29T12:51:12;78.68;;;43.50;;
50906;SDS011;36882;27.680;85.304;2023-12-29T12:53:42;73.78;;;39.67;;
50906;SDS011;36882;27.680;85.304;2023-12-29T12:58:43;69.97;;;42.03;;
50906;SDS011;36882;27.680;85.304;2023-12-29T13:01:14;75.45;;;40.65;;
50906;SDS011;36882;27.680;85.304;2023-12-29T13:03:45;79.65;;;39.78;;
50906;SDS011;36882;27.680;85.304;2023-12-29T13:06:18;78.25;;;49.60;;
50906;SDS011;36882;27.680;85.304;2023-12-29T13:08:54;71.85;;;51.05;;
50906;SDS011;36882;27.680;85.304;2023-12-29T13:11:35;81.15;;;51.03;;
50906;SDS011;36882;27.680;85.304;2023-12-29T13:14:06;84.82;;;53.10;;
50906;SDS011;36882;27.680;85.304;2023-12-29T13:16:36;85.45;;;52.55;;
50906;SDS011;36882;27.680;85.304;2023-12-29T13:19:19;95.60;;;56.45;;
50906;SDS011;36882;27.680;85.304;2023-12-29T13:21:51;122.63;;;75.60;;
50906;SDS011;36882;27.680;85.304;2023-12-29T13:24:25;117.15;;;68.35;;
50906;SDS011;36882;27.680;85.304;2023-12-29T13:26:57;114.82;;;67.43;;
50906;SDS011;36882;27.680;85.304;2023-12-29T13:29:31;103.13;;;61.58;;
50906;SDS011;36882;27.680;85.304;2023-12-29T13:34:51;97.60;;;61.05;;
50906;SDS011;36882;27.680;85.304;2023-12-29T13:40:32;106.22;;;64.38;;
50906;SDS011;36882;27.680;85.304;2023-12-29T13:43:10;102.40;;;68.10;;
50906;SDS011;36882;27.680;85.304;2023-12-29T13:46:12;126.00;;;71.63;;
50906;SDS011;36882;27.680;85.304;2023-12-29T13:48:48;117.15;;;75.53;;
50906;SDS011;36882;27.680;85.304;2023-12-29T13:51:24;124.38;;;75.30;;
50906;SDS011;36882;27.680;85.304;2023-12-29T13:54:02;118.93;;;74.70;;
50906;SDS011;36882;27.680;85.304;2023-12-29T13:56:50;135.68;;;80.00;;
50906;SDS011;36882;27.680;85.304;2023-12-29T13:59:33;114.53;;;73.47;;
50906;SDS011;36882;27.680;85.304;2023-12-29T14:08:32;115.85;;;71.72;;
50906;SDS011;36882;27.680;85.304;2023-12-29T14:10:38;113.53;;;72.55;;
50906;SDS011;36882;27.680;85.304;2023-12-29T14:13:17;99.38;;;67.57;;
50906;SDS011;36882;27.680;85.304;2023-12-29T14:15:48;101.63;;;65.93;;
50906;SDS011;36882;27.680;85.304;2023-12-29T14:21:22;101.00;;;67.82;;
50906;SDS011;36882;27.680;85.304;2023-12-29T14:24:12;91.03;;;61.15;;
50906;SDS011;36882;27.680;85.304;2023-12-29T14:29:26;81.45;;;52.85;;
50906;SDS011;36882;27.680;85.304;2023-12-29T14:31:56;72.60;;;50.17;;
50906;SDS011;36882;27.680;85.304;2023-12-29T14:34:31;78.88;;;50.30;;
50906;SDS011;36882;27.680;85.304;2023-12-29T14:37:05;72.28;;;46.78;;
50906;SDS011;36882;27.680;85.304;2023-12-29T14:39:39;77.47;;;45.65;;
50906;SDS011;36882;27.680;85.304;2023-12-29T14:42:12;69.55;;;46.60;;
50906;SDS011;36882;27.680;85.304;2023-12-29T14:44:50;75.63;;;46.13;;
50906;SDS011;36882;27.680;85.304;2023-12-29T14:47:23;77.70;;;49.70;;
50906;SDS011;36882;27.680;85.304;2023-12-29T14:49:56;66.97;;;45.95;;
50906;SDS011;36882;27.680;85.304;2023-12-29T14:52:27;70.70;;;45.35;;
50906;SDS011;36882;27.680;85.304;2023-12-29T14:55:00;70.75;;;45.13;;
50906;SDS011;36882;27.680;85.304;2023-12-29T14:57:32;77.55;;;45.70;;
50906;SDS011;36882;27.680;85.304;2023-12-29T15:00:07;74.15;;;48.70;;
50906;SDS011;36882;27.680;85.304;2023-12-29T15:02:38;86.32;;;48.10;;
50906;SDS011;36882;27.680;85.304;2023-12-29T15:05:20;82.93;;;51.55;;
50906;SDS011;36882;27.680;85.304;2023-12-29T15:07:52;83.35;;;52.88;;
50906;SDS011;36882;27.680;85.304;2023-12-29T15:10:39;87.80;;;57.08;;
50906;SDS011;36882;27.680;85.304;2023-12-29T15:13:16;95.47;;;60.72;;
50906;SDS011;36882;27.680;85.304;2023-12-29T15:15:47;97.80;;;65.53;;
50906;SDS011;36882;27.680;85.304;2023-12-29T15:18:21;103.82;;;64.75;;
50906;SDS011;36882;27.680;85.304;2023-12-29T15:23:48;109.38;;;72.30;;
50906;SDS011;36882;27.680;85.304;2023-12-29T15:28:48;108.07;;;66.45;;
50906;SDS011;36882;27.680;85.304;2023-12-29T15:31:26;101.82;;;64.43;;
50906;SDS011;36882;27.680;85.304;2023-12-29T15:33:58;116.07;;;72.97;;
50906;SDS011;36882;27.680;85.304;2023-12-29T15:36:29;101.30;;;65.20;;
50906;SDS011;36882;27.680;85.304;2023-12-29T15:41:33;104.95;;;62.88;;
50906;SDS011;36882;27.680;85.304;2023-12-29T15:44:04;101.95;;;62.03;;
50906;SDS011;36882;27.680;85.304;2023-12-29T15:46:38;101.47;;;61.72;;
50906;SDS011;36882;27.680;85.304;2023-12-29T15:51:39;108.40;;;60.88;;
50906;SDS011;36882;27.680;85.304;2023-12-29T15:54:12;93.18;;;55.92;;
50906;SDS011;36882;27.680;85.304;2023-12-29T15:56:42;83.80;;;53.50;;
50906;SDS011;36882;27.680;85.304;2023-12-29T15:59:13;94.90;;;52.83;;
50906;SDS011;36882;27.680;85.304;2023-12-29T16:04:14;90.90;;;59.75;;
50906;SDS011;36882;27.680;85.304;2023-12-29T16:06:48;106.32;;;58.85;;
50906;SDS011;36882;27.680;85.304;2023-12-29T16:09:19;90.95;;;55.83;;
50906;SDS011;36882;27.680;85.304;2023-12-29T16:11:50;93.13;;;56.33;;
50906;SDS011;36882;27.680;85.304;2023-12-29T16:14:28;88.38;;;56.95;;
50906;SDS011;36882;27.680;85.304;2023-12-29T16:16:59;95.82;;;57.22;;